Time;durP1;ratioP1;P1;durP2;ratioP2;P2;SDS_P1;SDS_P2;PMS_P1;PMS_P2;Temp;Humidity;BMP_temperature;BMP_pressure;BME280_temperature;BME280_humidity;BME280_pressure;Samples;Min_cycle;Max_cycle;Signal;HPM_P1;HPM_P2
2022/12/04 00:01:23;;;;;;;51.97;36.80;;;0.40;99.90;;;;;;5074522;28;20512;-77
2022/12/04 00:03:53;;;;;;;52.47;37.10;;;0.40;99.90;;;;;;5074221;28;20474;-77
2022/12/04 00:06:23;;;;;;;43.87;33.50;;;0.40;99.90;;;;;;5075944;28;20429;-76
2022/12/04 00:08:55;;;;;;;48.73;33.80;;;0.40;99.90;;;;;;5076280;28;20503;-77
2022/12/04 00:11:25;;;;;;;51.67;39.53;;;0.40;99.90;;;;;;5074978;28;20434;-77
2022/12/04 00:13:54;;;;;;;55.60;38.93;;;0.40;99.90;;;;;;5074263;28;20468;-76
2022/12/04 00:16:28;;;;;;;52.00;39.33;;;0.40;99.90;;;;;;5074230;28;20437;-77
2022/12/04 00:18:57;;;;;;;46.50;36.97;;;0.40;99.90;;;;;;5074650;28;20542;-77
2022/12/04 00:21:25;;;;;;;49.20;38.00;;;0.40;99.90;;;;;;5074085;28;20438;-77
2022/12/04 00:23:55;;;;;;;50.17;36.83;;;0.40;99.90;;;;;;5075442;28;20502;-77
2022/12/04 00:26:24;;;;;;;51.33;38.63;;;0.40;99.90;;;;;;5070998;28;20449;-77
2022/12/04 00:28:52;;;;;;;48.17;36.40;;;0.40;99.90;;;;;;5075046;28;20978;-77
2022/12/04 00:31:23;;;;;;;50.30;37.07;;;0.40;99.90;;;;;;5075245;28;20461;-76
2022/12/04 00:33:52;;;;;;;49.63;38.73;;;0.50;99.90;;;;;;5074988;28;20827;-77
2022/12/04 00:36:22;;;;;;;51.57;39.80;;;0.40;99.90;;;;;;5073712;28;20441;-77
2022/12/04 00:38:51;;;;;;;46.70;37.10;;;0.40;99.90;;;;;;5073660;28;20437;-77
2022/12/04 00:41:23;;;;;;;50.00;38.03;;;0.50;99.90;;;;;;5073663;28;20490;-77
2022/12/04 00:43:51;;;;;;;50.13;37.37;;;0.40;99.90;;;;;;5073582;28;20835;-76
2022/12/04 00:46:20;;;;;;;49.13;38.57;;;0.40;99.90;;;;;;5073531;28;20445;-77
2022/12/04 00:48:48;;;;;;;50.30;37.20;;;0.40;99.90;;;;;;5074999;28;20500;-76
2022/12/04 00:51:18;;;;;;;47.67;36.13;;;0.50;99.90;;;;;;5075002;28;20434;-77
2022/12/04 00:53:46;;;;;;;49.30;37.47;;;0.50;99.90;;;;;;5074564;28;20468;-77
2022/12/04 00:56:18;;;;;;;44.40;34.70;;;0.40;99.90;;;;;;5074838;28;20440;-76
2022/12/04 00:58:48;;;;;;;50.80;37.00;;;0.40;99.90;;;;;;5073384;28;20533;-76
2022/12/04 01:01:18;;;;;;;49.97;38.70;;;0.50;99.90;;;;;;5073929;28;20485;-77
2022/12/04 01:03:47;;;;;;;50.93;38.27;;;0.50;99.90;;;;;;5073214;28;20477;-77
2022/12/04 01:06:20;;;;;;;48.73;37.97;;;0.40;99.90;;;;;;5073098;28;20938;-77
2022/12/04 01:08:49;;;;;;;46.03;33.70;;;0.40;99.90;;;;;;5074426;28;20473;-77
2022/12/04 01:11:18;;;;;;;49.07;38.03;;;0.50;99.90;;;;;;5072927;28;20888;-77
2022/12/04 01:13:48;;;;;;;51.13;37.63;;;0.50;99.90;;;;;;5072957;28;20669;-77
2022/12/04 01:16:18;;;;;;;49.17;38.10;;;0.50;99.90;;;;;;5069668;28;21016;-76
2022/12/04 01:18:46;;;;;;;48.50;37.20;;;0.40;99.90;;;;;;5074381;28;20468;-77
2022/12/04 01:21:14;;;;;;;50.63;37.13;;;0.40;99.90;;;;;;5072853;28;20449;-76
2022/12/04 01:23:43;;;;;;;47.37;35.30;;;0.50;99.90;;;;;;5072775;28;20477;-76
2022/12/04 01:26:11;;;;;;;46.13;37.33;;;0.40;99.90;;;;;;5074305;28;20494;-76
2022/12/04 01:28:39;;;;;;;46.67;35.10;;;0.40;99.90;;;;;;5073919;28;20470;-76
2022/12/04 01:31:11;;;;;;;49.27;37.07;;;0.50;99.90;;;;;;5073971;28;20449;-77
2022/12/04 01:33:41;;;;;;;46.87;36.13;;;0.50;99.90;;;;;;5073893;28;20540;-77
2022/12/04 01:36:12;;;;;;;52.53;41.07;;;0.50;99.90;;;;;;5072539;28;20437;-77
2022/12/04 01:38:41;;;;;;;46.60;37.13;;;0.50;99.90;;;;;;5072649;28;20453;-77
2022/12/04 01:41:17;;;;;;;47.80;36.97;;;0.50;99.90;;;;;;5072520;28;20514;-77
2022/12/04 01:44:05;;;;;;;48.23;35.80;;;0.50;99.90;;;;;;5072484;28;20469;-77
2022/12/04 01:46:35;;;;;;;47.10;35.93;;;0.50;99.90;;;;;;5072774;28;20475;-76
2022/12/04 01:49:04;;;;;;;54.23;40.23;;;0.50;99.90;;;;;;5072328;28;21052;-77
2022/12/04 01:51:37;;;;;;;52.97;38.03;;;0.50;99.90;;;;;;5072507;28;20455;-76
2022/12/04 01:54:11;;;;;;;44.57;35.40;;;0.50;99.90;;;;;;5073877;28;20481;-77
2022/12/04 01:56:43;;;;;;;47.57;34.93;;;0.50;99.90;;;;;;5072266;28;20496;-77
2022/12/04 01:59:15;;;;;;;44.07;35.83;;;0.50;99.90;;;;;;5078680;28;20429;-77
2022/12/04 02:01:52;;;;;;;48.10;37.70;;;0.50;99.90;;;;;;5077535;28;20417;-77
2022/12/04 02:04:20;;;;;;;48.20;35.60;;;0.50;99.90;;;;;;5073762;28;20469;-77
2022/12/04 02:06:49;;;;;;;49.90;37.40;;;0.50;99.90;;;;;;5071577;28;20453;-76
2022/12/04 02:09:17;;;;;;;48.23;37.50;;;0.50;99.90;;;;;;5073699;28;20464;-77
2022/12/04 02:12:03;;;;;;;48.10;38.93;;;0.50;99.90;;;;;;5072234;28;20433;-77
2022/12/04 02:14:38;;;;;;;47.77;36.30;;;0.50;99.90;;;;;;5072246;28;20477;-76
2022/12/04 02:17:20;;;;;;;46.80;35.20;;;0.50;99.90;;;;;;5072350;28;20441;-76
2022/12/04 02:20:17;;;;;;;45.83;35.20;;;0.50;99.90;;;;;;5073370;28;20429;-77
2022/12/04 02:23:16;;;;;;;47.70;35.70;;;0.50;99.90;;;;;;5072307;28;20442;-77
2022/12/04 02:25:53;;;;;;;48.10;35.80;;;0.60;99.90;;;;;;5073709;28;20828;-77
2022/12/04 02:28:25;;;;;;;50.00;33.70;;;0.50;99.90;;;;;;5071929;28;20784;-77
2022/12/04 02:30:59;;;;;;;47.07;35.80;;;0.60;99.90;;;;;;5073353;28;20445;-77
2022/12/04 02:33:32;;;;;;;50.07;37.53;;;0.60;99.90;;;;;;5073492;28;20457;-77
2022/12/04 02:36:04;;;;;;;47.60;34.93;;;0.50;99.90;;;;;;5073827;28;20417;-77
2022/12/04 02:38:36;;;;;;;48.10;33.43;;;0.60;99.90;;;;;;5071932;28;20483;-77
2022/12/04 02:41:13;;;;;;;50.23;38.47;;;0.60;99.90;;;;;;5072132;28;20456;-77
2022/12/04 02:43:46;;;;;;;51.63;37.20;;;0.60;99.90;;;;;;5071806;28;20994;-77
2022/12/04 02:46:20;;;;;;;51.97;37.93;;;0.60;99.90;;;;;;5073104;28;20898;-77
2022/12/04 02:48:51;;;;;;;50.20;37.80;;;0.60;99.90;;;;;;5073024;28;21002;-77
2022/12/04 02:51:21;;;;;;;49.57;35.57;;;0.60;99.90;;;;;;5072933;28;20998;-77
2022/12/04 02:53:54;;;;;;;49.27;39.53;;;0.60;99.90;;;;;;5072925;28;20461;-77
2022/12/04 02:56:26;;;;;;;50.33;38.30;;;0.60;99.90;;;;;;5070812;28;20452;-77
2022/12/04 02:58:58;;;;;;;49.43;37.10;;;0.60;99.90;;;;;;5071704;28;20433;-77
2022/12/04 03:01:30;;;;;;;51.87;38.67;;;0.70;99.90;;;;;;5071675;28;20436;-77
2022/12/04 03:04:04;;;;;;;49.43;34.60;;;0.60;99.90;;;;;;5073284;28;20557;-77
2022/12/04 03:06:38;;;;;;;48.80;35.90;;;0.60;99.90;;;;;;5072966;28;20418;-76
2022/12/04 03:09:11;;;;;;;53.67;38.53;;;0.60;99.90;;;;;;5071585;28;20843;-77
2022/12/04 03:11:42;;;;;;;53.80;39.30;;;0.60;99.90;;;;;;5071517;28;20440;-76
2022/12/04 03:14:16;;;;;;;52.03;40.80;;;0.60;99.90;;;;;;5073079;28;20456;-77
2022/12/04 03:16:47;;;;;;;53.80;35.70;;;0.60;99.90;;;;;;5072895;28;20475;-77
2022/12/04 03:19:21;;;;;;;50.00;39.43;;;0.70;99.90;;;;;;5071651;28;20801;-77
2022/12/04 03:22:02;;;;;;;55.87;39.17;;;0.70;99.90;;;;;;5071514;28;20918;-77
2022/12/04 03:24:34;;;;;;;54.10;39.83;;;0.70;99.90;;;;;;5074024;28;20476;-76
2022/12/04 03:27:11;;;;;;;53.60;39.03;;;0.60;99.90;;;;;;5075372;28;20460;-77
2022/12/04 03:29:43;;;;;;;51.10;38.90;;;0.60;99.90;;;;;;5076736;28;20473;-77
2022/12/04 03:32:15;;;;;;;52.73;39.90;;;0.60;99.90;;;;;;5075031;28;20460;-77
2022/12/04 03:34:54;;;;;;;51.80;39.37;;;0.70;99.90;;;;;;5074836;28;20468;-77
2022/12/04 03:37:28;;;;;;;50.70;40.90;;;0.70;99.90;;;;;;5076405;28;20432;-77
2022/12/04 03:40:01;;;;;;;50.20;34.67;;;0.70;99.90;;;;;;5076105;28;20419;-77
2022/12/04 03:42:38;;;;;;;49.60;38.37;;;0.70;99.90;;;;;;5076579;28;20429;-76
2022/12/04 03:45:12;;;;;;;52.40;39.20;;;0.70;99.90;;;;;;5074724;28;20477;-77
2022/12/04 03:47:45;;;;;;;52.50;39.33;;;0.70;99.90;;;;;;5072782;28;20438;-76
2022/12/04 03:50:17;;;;;;;47.93;38.73;;;0.70;99.90;;;;;;5074796;28;20469;-77
2022/12/04 03:52:52;;;;;;;50.33;36.83;;;0.70;99.90;;;;;;5074767;28;20813;-77
2022/12/04 03:55:24;;;;;;;52.50;38.47;;;0.70;99.90;;;;;;5075888;28;20457;-76
2022/12/04 03:57:56;;;;;;;51.47;40.70;;;0.70;99.90;;;;;;5076098;28;20428;-76
2022/12/04 04:00:26;;;;;;;52.87;40.53;;;0.70;99.90;;;;;;5076366;28;20771;-77
2022/12/04 04:02:59;;;;;;;53.10;40.50;;;0.70;99.90;;;;;;5075673;28;20430;-76
2022/12/04 04:05:29;;;;;;;51.07;39.40;;;0.70;99.90;;;;;;5074397;28;20469;-77
2022/12/04 04:08:24;;;;;;;52.63;41.17;;;0.70;99.90;;;;;;5075882;28;20794;-77
2022/12/04 04:10:50;;;;;;;51.30;39.57;;;0.70;99.90;;;;;;5075228;28;20841;-77
2022/12/04 04:24:45;;;;;;;54.00;39.57;;;0.70;99.90;;;;;;5075463;28;20464;-76
2022/12/04 04:27:14;;;;;;;55.50;40.93;;;0.70;99.90;;;;;;5073992;28;20442;-76
2022/12/04 04:29:44;;;;;;;52.80;39.40;;;0.70;99.90;;;;;;5075369;28;20531;-76
2022/12/04 04:32:28;;;;;;;52.37;40.63;;;0.70;99.90;;;;;;5075062;28;20449;-76
2022/12/04 04:35:03;;;;;;;56.90;41.90;;;0.70;99.90;;;;;;5075008;28;20457;-76
2022/12/04 04:37:40;;;;;;;52.40;38.67;;;0.70;99.90;;;;;;5059473;28;20461;-76
2022/12/04 04:40:18;;;;;;;47.33;34.33;;;0.70;99.90;;;;;;5074964;28;20433;-77
2022/12/04 04:42:54;;;;;;;41.23;30.97;;;0.70;99.90;;;;;;5075162;28;20752;-77
2022/12/04 04:45:26;;;;;;;51.90;39.20;;;0.70;99.90;;;;;;5074818;28;20453;-76
2022/12/04 04:48:01;;;;;;;56.70;39.97;;;0.70;99.90;;;;;;5075614;28;20424;-76
2022/12/04 04:50:30;;;;;;;49.80;34.87;;;0.70;99.90;;;;;;5073524;28;20484;-76
2022/12/04 04:53:03;;;;;;;54.93;40.73;;;0.70;99.90;;;;;;5073481;28;20445;-76
2022/12/04 04:55:33;;;;;;;50.13;41.50;;;0.70;99.90;;;;;;5074980;28;20437;-77
2022/12/04 04:58:07;;;;;;;57.23;41.03;;;0.70;99.90;;;;;;5074897;28;20891;-77
2022/12/04 05:00:36;;;;;;;50.27;38.93;;;0.70;99.90;;;;;;5074567;28;20420;-77
2022/12/04 05:03:06;;;;;;;55.20;37.80;;;0.80;99.90;;;;;;5074525;28;20434;-77
2022/12/04 05:05:34;;;;;;;58.57;39.10;;;0.70;99.90;;;;;;5073198;28;20445;-76
2022/12/04 05:08:02;;;;;;;53.27;40.93;;;0.80;99.90;;;;;;5074657;28;20452;-77
2022/12/04 05:10:30;;;;;;;51.63;38.00;;;0.80;99.90;;;;;;5072938;28;20473;-77
2022/12/04 05:12:58;;;;;;;54.10;39.57;;;0.80;99.90;;;;;;5073149;28;20796;-77
2022/12/04 05:15:26;;;;;;;54.27;40.70;;;0.80;99.90;;;;;;5074185;28;20967;-77
2022/12/04 05:17:54;;;;;;;58.03;40.97;;;0.80;99.90;;;;;;5073000;28;20433;-76
2022/12/04 05:20:22;;;;;;;51.40;39.40;;;0.80;99.90;;;;;;5074457;28;20438;-77
2022/12/04 05:22:50;;;;;;;54.10;40.00;;;0.80;99.90;;;;;;5075168;28;20452;-76
2022/12/04 05:25:19;;;;;;;55.30;40.03;;;0.80;99.90;;;;;;5072368;28;20556;-76
2022/12/04 05:27:47;;;;;;;52.80;37.50;;;0.80;99.90;;;;;;5071218;28;20449;-76
2022/12/04 05:30:15;;;;;;;48.57;38.10;;;0.80;99.90;;;;;;5072906;28;20558;-76
2022/12/04 05:32:43;;;;;;;53.03;36.73;;;0.90;99.90;;;;;;5072701;28;20950;-76
2022/12/04 05:35:11;;;;;;;52.40;39.40;;;0.80;99.90;;;;;;5073778;28;20474;-77
2022/12/04 05:37:41;;;;;;;54.23;37.70;;;0.90;99.90;;;;;;5074141;28;20434;-76
2022/12/04 05:40:10;;;;;;;47.93;37.40;;;0.80;99.90;;;;;;5072803;28;20454;-76
2022/12/04 05:42:38;;;;;;;52.27;38.73;;;0.90;99.90;;;;;;5074454;28;20437;-76
2022/12/04 05:45:07;;;;;;;48.43;37.90;;;0.80;99.90;;;;;;5074376;28;20465;-76
2022/12/04 05:47:38;;;;;;;49.50;39.17;;;0.90;99.90;;;;;;5074196;28;20939;-76
2022/12/04 05:50:09;;;;;;;50.70;39.20;;;0.90;99.90;;;;;;5075441;28;20432;-76
2022/12/04 05:52:37;;;;;;;52.50;37.73;;;0.90;99.90;;;;;;5077571;28;20444;-76
2022/12/04 05:55:07;;;;;;;52.33;38.70;;;0.90;99.90;;;;;;5075071;28;20515;-76
2022/12/04 05:57:36;;;;;;;52.60;38.00;;;0.90;99.90;;;;;;5074782;28;20452;-77
2022/12/04 06:00:05;;;;;;;50.57;38.53;;;0.90;99.90;;;;;;5073679;28;20962;-77
2022/12/04 06:02:38;;;;;;;51.90;38.17;;;0.90;99.90;;;;;;5074518;28;20483;-76
2022/12/04 06:05:07;;;;;;;49.53;39.27;;;0.90;99.90;;;;;;5072861;28;20461;-76
2022/12/04 06:07:35;;;;;;;48.13;38.10;;;0.90;99.90;;;;;;5074707;28;20437;-76
2022/12/04 06:10:04;;;;;;;49.10;38.13;;;0.90;99.90;;;;;;5072819;28;20480;-76
2022/12/04 06:12:33;;;;;;;47.30;37.07;;;1.00;99.90;;;;;;5074082;28;20440;-77
2022/12/04 06:15:01;;;;;;;45.80;35.70;;;1.00;99.90;;;;;;5072465;28;20477;-77
2022/12/04 06:17:29;;;;;;;49.40;39.50;;;1.00;99.90;;;;;;5071204;28;20478;-77
2022/12/04 06:19:58;;;;;;;48.83;35.77;;;1.00;99.90;;;;;;5072148;28;20449;-76
2022/12/04 06:22:27;;;;;;;46.57;36.10;;;1.00;99.90;;;;;;5072085;28;20480;-76
2022/12/04 06:24:55;;;;;;;47.13;37.00;;;1.00;99.90;;;;;;5072679;28;20606;-76
2022/12/04 06:27:23;;;;;;;45.40;37.37;;;1.00;99.90;;;;;;5073704;28;20440;-76
2022/12/04 06:29:57;;;;;;;47.93;36.80;;;1.00;99.90;;;;;;5073542;28;20510;-76
2022/12/04 06:32:25;;;;;;;48.47;37.13;;;1.00;99.90;;;;;;5073107;28;20469;-76
2022/12/04 06:34:55;;;;;;;50.90;38.17;;;1.10;99.90;;;;;;5071926;28;20473;-76
2022/12/04 06:37:25;;;;;;;46.80;36.77;;;1.10;99.90;;;;;;5073252;28;20447;-76
2022/12/04 06:39:53;;;;;;;49.33;36.40;;;1.10;99.90;;;;;;5073375;28;20446;-76
2022/12/04 06:42:21;;;;;;;49.87;37.57;;;1.10;99.90;;;;;;5071948;28;20467;-76
2022/12/04 06:44:49;;;;;;;48.43;35.93;;;1.10;99.90;;;;;;5073032;28;20460;-76
2022/12/04 06:47:19;;;;;;;50.63;38.60;;;1.10;99.90;;;;;;5071768;28;20493;-76
2022/12/04 06:49:49;;;;;;;45.30;35.33;;;1.10;99.90;;;;;;5073356;28;20790;-76
2022/12/04 06:52:18;;;;;;;47.83;36.67;;;1.20;99.90;;;;;;5073443;28;20549;-76
2022/12/04 06:54:46;;;;;;;46.50;35.17;;;1.20;99.90;;;;;;5072865;28;20450;-76
2022/12/04 06:57:14;;;;;;;46.83;35.37;;;1.20;99.90;;;;;;5073115;28;20522;-77
2022/12/04 06:59:47;;;;;;;49.80;37.30;;;1.20;99.90;;;;;;5075439;28;20940;-76
2022/12/04 07:02:15;;;;;;;46.03;35.90;;;1.20;99.90;;;;;;5077064;28;20845;-76
2022/12/04 07:04:45;;;;;;;45.43;34.93;;;1.20;99.90;;;;;;5076675;28;20462;-77
2022/12/04 07:07:13;;;;;;;47.90;36.73;;;1.20;99.90;;;;;;5070959;28;20823;-77
2022/12/04 07:09:41;;;;;;;46.43;35.60;;;1.30;99.90;;;;;;5075472;28;20451;-76
2022/12/04 07:12:09;;;;;;;43.47;36.47;;;1.30;99.90;;;;;;5076549;28;20999;-76
2022/12/04 07:14:37;;;;;;;47.33;37.53;;;1.30;99.90;;;;;;5076428;28;20458;-76
2022/12/04 07:17:05;;;;;;;48.07;36.33;;;1.30;99.90;;;;;;5075189;28;20966;-76
2022/12/04 07:19:33;;;;;;;49.07;36.00;;;1.30;99.90;;;;;;5076409;28;20878;-76
2022/12/04 07:22:03;;;;;;;49.20;37.03;;;1.30;99.90;;;;;;5075143;28;20503;-77
2022/12/04 07:24:31;;;;;;;48.47;37.10;;;1.40;99.90;;;;;;5075166;28;20471;-76
2022/12/04 07:26:59;;;;;;;47.97;36.13;;;1.30;99.90;;;;;;5075564;28;20942;-75
2022/12/04 07:29:27;;;;;;;51.00;37.13;;;1.40;99.90;;;;;;5076567;28;20441;-75
2022/12/04 07:31:55;;;;;;;50.77;38.23;;;1.30;99.90;;;;;;5074781;28;20478;-75
2022/12/04 07:34:23;;;;;;;51.63;36.43;;;1.30;99.90;;;;;;5076387;28;20493;-75
2022/12/04 07:36:51;;;;;;;45.70;35.40;;;1.30;99.90;;;;;;5076208;28;20440;-75
2022/12/04 07:39:21;;;;;;;50.10;37.20;;;1.30;99.90;;;;;;5074799;28;20446;-76
2022/12/04 07:45:20;;;;;;;50.53;34.23;;;1.40;99.90;;;;;;5054423;28;20473;-76
2022/12/04 07:48:01;;;;;;;46.00;34.43;;;1.40;99.90;;;;;;5056951;28;20418;-75
2022/12/04 07:50:38;;;;;;;48.13;38.33;;;1.30;99.90;;;;;;5055913;28;20521;-75
2022/12/04 07:53:11;;;;;;;48.17;36.37;;;1.40;99.90;;;;;;5056073;28;20473;-75
2022/12/04 07:58:48;;;;;;;47.30;36.77;;;1.40;99.90;;;;;;5046178;28;20458;-77
2022/12/04 08:01:18;;;;;;;49.13;38.10;;;1.40;99.90;;;;;;5054368;28;20443;-77
2022/12/04 08:03:48;;;;;;;46.90;36.23;;;1.40;99.90;;;;;;5055551;28;20994;-77
2022/12/04 08:06:17;;;;;;;50.23;37.87;;;1.40;99.90;;;;;;5055299;28;20461;-77
2022/12/04 08:08:46;;;;;;;48.00;37.40;;;1.40;99.90;;;;;;5054356;28;20952;-76
2022/12/04 08:11:18;;;;;;;49.50;37.63;;;1.40;99.90;;;;;;5053692;28;20995;-76
2022/12/04 08:13:46;;;;;;;52.87;40.03;;;1.40;99.90;;;;;;5055655;28;20519;-76
2022/12/04 08:16:16;;;;;;;47.87;38.20;;;1.40;99.90;;;;;;5054110;28;21028;-76
2022/12/04 08:18:47;;;;;;;47.77;37.20;;;1.40;99.90;;;;;;5055653;28;20430;-76
2022/12/04 08:21:24;;;;;;;52.37;38.53;;;1.50;99.90;;;;;;5055438;28;20944;-76
2022/12/04 08:23:54;;;;;;;44.23;34.03;;;1.40;99.90;;;;;;5054182;28;20470;-77
2022/12/04 08:26:26;;;;;;;47.70;35.60;;;1.40;99.90;;;;;;5055634;28;20802;-77
2022/12/04 08:28:54;;;;;;;45.30;34.13;;;1.50;99.90;;;;;;5053933;28;20451;-77
2022/12/04 08:31:31;;;;;;;39.17;29.07;;;1.40;99.90;;;;;;5055233;28;20853;-76
2022/12/04 08:34:01;;;;;;;48.43;36.83;;;1.40;99.90;;;;;;5055895;28;20476;-76
2022/12/04 08:36:30;;;;;;;45.97;36.77;;;1.40;99.90;;;;;;5070915;28;20450;-77
2022/12/04 08:38:58;;;;;;;48.20;38.10;;;1.40;99.90;;;;;;5070475;28;20467;-76
2022/12/04 08:41:28;;;;;;;47.57;36.73;;;1.40;99.90;;;;;;5055071;28;20452;-77
2022/12/04 08:43:56;;;;;;;43.97;34.60;;;1.40;99.90;;;;;;5055200;28;20470;-77
2022/12/04 08:46:26;;;;;;;46.70;36.10;;;1.50;99.90;;;;;;5070295;28;20544;-77
2022/12/04 08:48:55;;;;;;;45.20;34.40;;;1.50;99.90;;;;;;5054795;28;20456;-77
2022/12/04 08:51:25;;;;;;;45.00;34.50;;;1.50;99.90;;;;;;5054745;28;20961;-77
2022/12/04 08:53:55;;;;;;;47.63;37.17;;;1.50;99.90;;;;;;5055498;28;20511;-76
2022/12/04 08:56:24;;;;;;;45.57;34.87;;;1.50;99.90;;;;;;5057980;28;20438;-76
2022/12/04 08:58:53;;;;;;;44.63;34.30;;;1.50;99.90;;;;;;5055295;28;20434;-76
2022/12/04 09:01:21;;;;;;;47.97;36.57;;;1.50;99.90;;;;;;5054987;28;20495;-76
2022/12/04 09:03:49;;;;;;;40.87;34.10;;;1.50;99.90;;;;;;5054307;28;20983;-75
2022/12/04 09:06:18;;;;;;;46.97;34.70;;;1.60;99.90;;;;;;5054489;28;20492;-75
2022/12/04 09:08:46;;;;;;;43.20;33.67;;;1.60;99.90;;;;;;5069807;28;20450;-76
2022/12/04 09:11:16;;;;;;;45.33;35.50;;;1.60;99.90;;;;;;5068058;28;20463;-75
2022/12/04 09:13:45;;;;;;;42.67;33.70;;;1.60;99.90;;;;;;5069680;28;20507;-76
2022/12/04 09:16:16;;;;;;;46.47;37.47;;;1.60;99.90;;;;;;5057933;28;20450;-76
2022/12/04 09:18:44;;;;;;;46.27;37.17;;;1.60;99.90;;;;;;5072918;28;20449;-75
2022/12/04 09:21:14;;;;;;;46.07;33.80;;;1.60;99.90;;;;;;5073349;28;20953;-76
2022/12/04 09:23:43;;;;;;;48.53;37.70;;;1.60;99.90;;;;;;5073124;28;20465;-75
2022/12/04 09:26:19;;;;;;;42.20;32.97;;;1.60;99.90;;;;;;5074294;28;20540;-76
2022/12/04 09:28:47;;;;;;;46.70;35.17;;;1.70;99.90;;;;;;5074499;28;20471;-76
2022/12/04 09:31:18;;;;;;;41.00;34.37;;;1.70;99.90;;;;;;5074292;28;20461;-76
2022/12/04 09:33:46;;;;;;;49.50;37.73;;;1.70;99.90;;;;;;5072639;28;20483;-76
2022/12/04 09:36:15;;;;;;;45.23;35.43;;;1.70;99.90;;;;;;5072583;28;20954;-77
2022/12/04 09:38:44;;;;;;;42.67;36.17;;;1.70;99.90;;;;;;5074004;28;20440;-77
2022/12/04 09:41:27;;;;;;;43.70;34.13;;;1.70;99.90;;;;;;5073698;28;20440;-76
2022/12/04 09:44:00;;;;;;;41.30;33.90;;;1.70;99.90;;;;;;5073696;28;20450;-77
2022/12/04 09:46:35;;;;;;;41.73;33.67;;;1.80;99.90;;;;;;5072586;28;20865;-76
2022/12/04 09:49:10;;;;;;;43.93;34.47;;;1.80;99.90;;;;;;5072487;28;20810;-76
2022/12/04 09:51:41;;;;;;;45.20;35.50;;;1.80;99.90;;;;;;5072747;28;20435;-76
2022/12/04 09:54:14;;;;;;;44.30;34.47;;;1.80;99.90;;;;;;5072407;28;20995;-76
2022/12/04 09:56:45;;;;;;;46.17;34.47;;;1.80;99.90;;;;;;5073893;28;20950;-76
2022/12/04 09:59:18;;;;;;;44.50;36.17;;;1.80;99.90;;;;;;5073842;28;20478;-76
2022/12/04 10:01:51;;;;;;;44.93;36.97;;;1.80;99.90;;;;;;5073607;28;20476;-76
2022/12/04 10:04:19;;;;;;;44.87;35.27;;;1.90;99.90;;;;;;5073931;28;20516;-76
2022/12/04 10:06:55;;;;;;;46.20;35.17;;;1.90;99.90;;;;;;5069844;28;20484;-75
2022/12/04 10:09:32;;;;;;;42.90;34.00;;;1.90;99.90;;;;;;5073453;28;20429;-76
2022/12/04 10:12:15;;;;;;;48.90;38.63;;;1.90;99.90;;;;;;5072484;28;20518;-76
2022/12/04 10:14:54;;;;;;;46.33;35.50;;;1.90;99.90;;;;;;5073748;28;20449;-76
2022/12/04 10:17:35;;;;;;;44.30;36.33;;;1.90;99.90;;;;;;5072653;28;20799;-76
2022/12/04 10:20:16;;;;;;;50.03;36.80;;;1.90;99.90;;;;;;5073369;28;20933;-76
2022/12/04 10:22:53;;;;;;;43.00;35.30;;;1.90;99.90;;;;;;5073565;28;20483;-76
2022/12/04 10:25:25;;;;;;;44.93;35.77;;;1.90;99.90;;;;;;5072309;28;20558;-76
2022/12/04 10:27:56;;;;;;;44.73;35.20;;;1.90;99.90;;;;;;5072064;28;20440;-76
2022/12/04 10:30:27;;;;;;;44.57;35.67;;;1.90;99.90;;;;;;5072620;28;20447;-76
2022/12/04 10:32:59;;;;;;;44.30;35.67;;;1.90;99.90;;;;;;5074698;28;20981;-76
2022/12/04 10:35:30;;;;;;;43.87;33.77;;;1.90;99.90;;;;;;5077771;28;20456;-76
2022/12/04 10:38:01;;;;;;;45.07;36.67;;;2.00;99.90;;;;;;5076236;28;20448;-76
2022/12/04 10:40:34;;;;;;;53.50;40.10;;;2.00;99.90;;;;;;5076062;28;20500;-76
2022/12/04 10:43:14;;;;;;;44.33;34.83;;;2.00;99.90;;;;;;5077732;28;20414;-75
2022/12/04 10:45:42;;;;;;;45.37;36.37;;;2.00;99.90;;;;;;5077456;28;20472;-76
2022/12/04 10:48:18;;;;;;;41.13;34.80;;;2.00;99.90;;;;;;5075843;28;20453;-76
2022/12/04 10:50:46;;;;;;;42.73;35.77;;;2.00;99.90;;;;;;5077119;28;20426;-76
2022/12/04 10:53:16;;;;;;;46.83;36.43;;;2.00;99.90;;;;;;5076740;28;20474;-76
2022/12/04 10:55:44;;;;;;;45.47;36.53;;;2.00;99.90;;;;;;5075276;28;20896;-76
2022/12/04 10:58:16;;;;;;;35.57;29.10;;;2.00;99.90;;;;;;5076911;28;20438;-76
2022/12/04 11:00:46;;;;;;;45.90;36.17;;;2.00;99.90;;;;;;5075602;28;20446;-76
2022/12/04 11:03:26;;;;;;;48.30;36.33;;;2.00;99.90;;;;;;5075413;28;20448;-76
2022/12/04 11:05:58;;;;;;;46.40;37.20;;;2.10;99.90;;;;;;5076813;28;20408;-75
2022/12/04 11:08:31;;;;;;;45.83;35.57;;;2.10;99.90;;;;;;5076763;28;20424;-75
2022/12/04 11:11:01;;;;;;;42.83;35.37;;;2.10;99.90;;;;;;5078768;28;21010;-76
2022/12/04 11:13:30;;;;;;;47.13;36.50;;;2.10;99.90;;;;;;5080580;28;20480;-76
2022/12/04 11:15:59;;;;;;;47.23;38.07;;;2.10;99.90;;;;;;5077930;28;20441;-76
2022/12/04 11:18:31;;;;;;;50.70;37.27;;;2.10;99.90;;;;;;5079164;28;20462;-76
2022/12/04 11:21:02;;;;;;;46.60;33.80;;;2.20;99.90;;;;;;5077871;28;20442;-76
2022/12/04 11:23:34;;;;;;;47.60;38.33;;;2.20;99.90;;;;;;5076982;28;20463;-76
2022/12/04 11:26:03;;;;;;;38.30;29.80;;;2.20;99.90;;;;;;5076159;28;20552;-76
2022/12/04 11:28:34;;;;;;;53.10;39.37;;;2.20;99.90;;;;;;5077571;28;20748;-76
2022/12/04 11:31:16;;;;;;;44.80;35.47;;;2.20;99.90;;;;;;5076569;28;20501;-76
2022/12/04 11:33:49;;;;;;;45.57;35.80;;;2.20;99.90;;;;;;5076640;28;20530;-76
2022/12/04 11:36:21;;;;;;;46.03;35.70;;;2.20;99.90;;;;;;5076682;28;20455;-76
2022/12/04 11:38:51;;;;;;;46.67;36.53;;;2.20;99.90;;;;;;5075204;28;20448;-76
2022/12/04 11:41:25;;;;;;;44.73;34.80;;;2.30;99.90;;;;;;5074975;28;20494;-76
2022/12/04 11:43:54;;;;;;;47.47;35.33;;;2.30;99.90;;;;;;5074451;28;21082;-76
2022/12/04 11:46:29;;;;;;;49.80;37.97;;;2.30;99.90;;;;;;5071504;28;20848;-76
2022/12/04 11:48:59;;;;;;;48.70;37.83;;;2.30;99.90;;;;;;5075620;28;20530;-76
2022/12/04 11:51:43;;;;;;;48.93;36.83;;;2.20;99.90;;;;;;5075892;28;20436;-76
2022/12/04 11:54:24;;;;;;;50.47;38.37;;;2.30;99.90;;;;;;5074609;28;20484;-76
2022/12/04 11:57:03;;;;;;;47.30;36.60;;;2.30;99.90;;;;;;5076308;28;20521;-76
2022/12/04 11:59:43;;;;;;;49.03;36.27;;;2.30;99.90;;;;;;5076463;28;20418;-76
2022/12/04 12:02:35;;;;;;;46.90;36.40;;;2.30;99.90;;;;;;5074468;28;20440;-75
2022/12/04 12:05:36;;;;;;;47.40;37.13;;;2.30;99.90;;;;;;5075920;28;20547;-76
2022/12/04 12:08:15;;;;;;;43.10;34.43;;;2.30;99.90;;;;;;5080467;28;20957;-76
2022/12/04 12:10:51;;;;;;;45.80;33.50;;;2.30;99.90;;;;;;5075962;28;20452;-75
2022/12/04 12:13:28;;;;;;;41.50;33.10;;;2.30;99.90;;;;;;5075059;28;20473;-76
2022/12/04 12:16:06;;;;;;;43.90;32.33;;;2.40;99.90;;;;;;5074713;28;20478;-75
2022/12/04 12:18:52;;;;;;;42.80;32.43;;;2.40;99.90;;;;;;5074332;28;20929;-75
2022/12/04 12:21:26;;;;;;;39.87;32.27;;;2.40;99.90;;;;;;5074249;28;20485;-77
2022/12/04 12:24:19;;;;;;;37.77;30.90;;;2.40;99.90;;;;;;5075509;28;20556;-77
2022/12/04 12:26:54;;;;;;;40.27;30.57;;;2.40;99.90;;;;;;5075382;28;20902;-77
2022/12/04 12:29:37;;;;;;;41.07;31.37;;;2.50;99.90;;;;;;5074208;28;20865;-78
2022/12/04 12:32:14;;;;;;;38.73;30.13;;;2.50;99.90;;;;;;5073806;28;20458;-76
2022/12/04 12:34:45;;;;;;;35.60;30.07;;;2.50;99.90;;;;;;5073842;28;20557;-76
2022/12/04 12:37:22;;;;;;;39.17;29.73;;;2.50;99.90;;;;;;5070954;28;20441;-76
2022/12/04 12:39:57;;;;;;;41.90;30.10;;;2.50;99.90;;;;;;5075556;28;20948;-77
2022/12/04 12:42:30;;;;;;;36.73;29.10;;;2.60;99.90;;;;;;5074216;28;20507;-77
2022/12/04 12:45:05;;;;;;;37.03;30.70;;;2.60;99.90;;;;;;5073868;28;21025;-77
2022/12/04 12:47:39;;;;;;;39.90;31.63;;;2.60;99.90;;;;;;5075308;28;20421;-76
2022/12/04 12:50:15;;;;;;;38.60;30.57;;;2.60;99.90;;;;;;5075079;28;20444;-77
2022/12/04 12:52:52;;;;;;;44.80;34.60;;;2.60;99.90;;;;;;5074970;28;20790;-77
2022/12/04 12:55:23;;;;;;;35.90;30.27;;;2.70;99.90;;;;;;5073539;28;20472;-77
2022/12/04 12:57:59;;;;;;;36.60;28.80;;;2.70;99.90;;;;;;5074991;28;20432;-77
2022/12/04 13:00:32;;;;;;;39.43;30.93;;;2.70;99.90;;;;;;5073343;28;20967;-77
2022/12/04 13:03:04;;;;;;;36.13;29.77;;;2.80;99.90;;;;;;5074587;28;20498;-77
2022/12/04 13:05:39;;;;;;;39.43;29.50;;;2.80;99.90;;;;;;5074950;28;20430;-77
2022/12/04 13:08:19;;;;;;;39.30;29.43;;;2.80;99.90;;;;;;5073302;28;20448;-77
2022/12/04 13:10:53;;;;;;;46.10;32.03;;;2.80;99.90;;;;;;5074819;28;20419;-77
2022/12/04 13:13:25;;;;;;;40.10;30.67;;;2.80;99.90;;;;;;5073138;28;20452;-77
2022/12/04 13:15:58;;;;;;;43.43;33.60;;;2.80;99.90;;;;;;5073031;28;20993;-77
2022/12/04 13:18:30;;;;;;;39.90;32.00;;;2.80;99.90;;;;;;5074757;28;20413;-77